sensor_id;sensor_type;location;lat;lon;timestamp;P1;durP1;ratioP1;P2;durP2;ratioP2
46815;SDS011;32787;53.316;8.670;2023-02-01T00:02:25;30.00;;;5.63;;
46815;SDS011;32787;53.316;8.670;2023-02-01T00:04:51;22.58;;;3.75;;
46815;SDS011;32787;53.316;8.670;2023-02-01T00:07:16;30.83;;;4.40;;
46815;SDS011;32787;53.316;8.670;2023-02-01T00:09:42;34.85;;;4.88;;
46815;SDS011;32787;53.316;8.670;2023-02-01T00:12:07;32.67;;;4.65;;
46815;SDS011;32787;53.316;8.670;2023-02-01T00:14:33;36.92;;;5.20;;
46815;SDS011;32787;53.316;8.670;2023-02-01T00:17:03;27.13;;;5.53;;
46815;SDS011;32787;53.316;8.670;2023-02-01T00:19:30;32.67;;;5.63;;
46815;SDS011;32787;53.316;8.670;2023-02-01T00:21:55;40.00;;;4.65;;
46815;SDS011;32787;53.316;8.670;2023-02-01T00:24:21;22.90;;;3.78;;
46815;SDS011;32787;53.316;8.670;2023-02-01T00:26:47;29.83;;;5.13;;
46815;SDS011;32787;53.316;8.670;2023-02-01T00:29:17;32.15;;;4.88;;
46815;SDS011;32787;53.316;8.670;2023-02-01T00:31:44;31.58;;;4.25;;
46815;SDS011;32787;53.316;8.670;2023-02-01T00:34:14;31.35;;;4.55;;
46815;SDS011;32787;53.316;8.670;2023-02-01T00:36:41;28.00;;;4.45;;
46815;SDS011;32787;53.316;8.670;2023-02-01T00:39:07;35.42;;;5.13;;
46815;SDS011;32787;53.316;8.670;2023-02-01T00:41:34;31.88;;;4.22;;
46815;SDS011;32787;53.316;8.670;2023-02-01T00:44:00;33.22;;;5.15;;
46815;SDS011;32787;53.316;8.670;2023-02-01T00:46:26;30.92;;;3.72;;
46815;SDS011;32787;53.316;8.670;2023-02-01T00:48:52;38.60;;;5.43;;
46815;SDS011;32787;53.316;8.670;2023-02-01T00:51:20;33.47;;;5.15;;
46815;SDS011;32787;53.316;8.670;2023-02-01T00:53:47;30.23;;;5.07;;
46815;SDS011;32787;53.316;8.670;2023-02-01T00:56:13;26.35;;;5.22;;
46815;SDS011;32787;53.316;8.670;2023-02-01T00:58:39;35.65;;;5.75;;
46815;SDS011;32787;53.316;8.670;2023-02-01T01:01:10;29.50;;;4.57;;
46815;SDS011;32787;53.316;8.670;2023-02-01T01:03:39;26.88;;;6.13;;
46815;SDS011;32787;53.316;8.670;2023-02-01T01:06:08;33.67;;;5.57;;
46815;SDS011;32787;53.316;8.670;2023-02-01T01:08:36;36.87;;;4.90;;
46815;SDS011;32787;53.316;8.670;2023-02-01T01:11:12;35.38;;;4.70;;
46815;SDS011;32787;53.316;8.670;2023-02-01T01:13:43;32.83;;;5.53;;
46815;SDS011;32787;53.316;8.670;2023-02-01T01:16:15;27.98;;;4.53;;
46815;SDS011;32787;53.316;8.670;2023-02-01T01:18:42;32.72;;;5.32;;
46815;SDS011;32787;53.316;8.670;2023-02-01T01:21:08;35.03;;;5.60;;
46815;SDS011;32787;53.316;8.670;2023-02-01T01:23:35;32.67;;;4.95;;
46815;SDS011;32787;53.316;8.670;2023-02-01T01:26:04;33.78;;;5.53;;
46815;SDS011;32787;53.316;8.670;2023-02-01T01:28:33;33.17;;;5.13;;
46815;SDS011;32787;53.316;8.670;2023-02-01T01:30:59;35.85;;;4.03;;
46815;SDS011;32787;53.316;8.670;2023-02-01T01:33:25;31.60;;;5.22;;
46815;SDS011;32787;53.316;8.670;2023-02-01T01:35:50;38.42;;;4.82;;
46815;SDS011;32787;53.316;8.670;2023-02-01T01:38:16;20.60;;;4.43;;
46815;SDS011;32787;53.316;8.670;2023-02-01T01:40:45;29.33;;;4.97;;
46815;SDS011;32787;53.316;8.670;2023-02-01T01:43:15;22.13;;;4.22;;
46815;SDS011;32787;53.316;8.670;2023-02-01T01:45:42;42.58;;;5.55;;
46815;SDS011;32787;53.316;8.670;2023-02-01T01:48:18;24.40;;;4.10;;
46815;SDS011;32787;53.316;8.670;2023-02-01T01:50:57;26.85;;;4.93;;
46815;SDS011;32787;53.316;8.670;2023-02-01T01:53:29;25.85;;;4.30;;
46815;SDS011;32787;53.316;8.670;2023-02-01T01:56:01;34.50;;;5.35;;
46815;SDS011;32787;53.316;8.670;2023-02-01T01:58:27;36.50;;;5.72;;
46815;SDS011;32787;53.316;8.670;2023-02-01T02:00:56;28.25;;;4.88;;
46815;SDS011;32787;53.316;8.670;2023-02-01T02:03:27;29.75;;;4.93;;
46815;SDS011;32787;53.316;8.670;2023-02-01T02:05:59;25.52;;;5.10;;
46815;SDS011;32787;53.316;8.670;2023-02-01T02:08:28;26.27;;;4.53;;
46815;SDS011;32787;53.316;8.670;2023-02-01T02:10:54;31.98;;;4.25;;
46815;SDS011;32787;53.316;8.670;2023-02-01T02:13:41;31.73;;;5.30;;
46815;SDS011;32787;53.316;8.670;2023-02-01T02:16:20;27.60;;;4.13;;
46815;SDS011;32787;53.316;8.670;2023-02-01T02:35:45;28.27;;;4.82;;
46815;SDS011;32787;53.316;8.670;2023-02-01T02:38:35;29.77;;;4.72;;
46815;SDS011;32787;53.316;8.670;2023-02-01T02:41:33;24.75;;;3.67;;
46815;SDS011;32787;53.316;8.670;2023-02-01T02:50:05;16.60;;;2.80;;
46815;SDS011;32787;53.316;8.670;2023-02-01T02:52:59;13.18;;;1.90;;
46815;SDS011;32787;53.316;8.670;2023-02-01T02:56:05;26.73;;;3.22;;
46815;SDS011;32787;53.316;8.670;2023-02-01T02:58:50;19.83;;;3.60;;
46815;SDS011;32787;53.316;8.670;2023-02-01T03:01:35;30.13;;;4.90;;
46815;SDS011;32787;53.316;8.670;2023-02-01T03:04:22;15.13;;;3.20;;
46815;SDS011;32787;53.316;8.670;2023-02-01T03:06:48;22.90;;;3.15;;
46815;SDS011;32787;53.316;8.670;2023-02-01T03:09:35;28.05;;;4.30;;
46815;SDS011;32787;53.316;8.670;2023-02-01T03:12:02;22.15;;;3.50;;
46815;SDS011;32787;53.316;8.670;2023-02-01T03:14:52;14.57;;;2.45;;
46815;SDS011;32787;53.316;8.670;2023-02-01T03:17:24;10.07;;;1.63;;
46815;SDS011;32787;53.316;8.670;2023-02-01T03:19:55;16.33;;;2.10;;
46815;SDS011;32787;53.316;8.670;2023-02-01T03:22:27;11.85;;;1.77;;
46815;SDS011;32787;53.316;8.670;2023-02-01T03:24:59;10.55;;;1.38;;
46815;SDS011;32787;53.316;8.670;2023-02-01T03:27:40;12.23;;;2.05;;
46815;SDS011;32787;53.316;8.670;2023-02-01T03:32:46;12.52;;;2.58;;
46815;SDS011;32787;53.316;8.670;2023-02-01T03:41:00;14.77;;;2.67;;
46815;SDS011;32787;53.316;8.670;2023-02-01T03:43:39;21.13;;;3.05;;
46815;SDS011;32787;53.316;8.670;2023-02-01T03:46:16;20.33;;;4.07;;
46815;SDS011;32787;53.316;8.670;2023-02-01T03:48:45;25.20;;;3.85;;
46815;SDS011;32787;53.316;8.670;2023-02-01T03:51:13;19.02;;;4.10;;
46815;SDS011;32787;53.316;8.670;2023-02-01T03:53:39;26.95;;;4.63;;
46815;SDS011;32787;53.316;8.670;2023-02-01T03:56:06;27.95;;;4.13;;
46815;SDS011;32787;53.316;8.670;2023-02-01T03:58:32;33.08;;;5.00;;
46815;SDS011;32787;53.316;8.670;2023-02-01T04:00:59;29.25;;;4.88;;
46815;SDS011;32787;53.316;8.670;2023-02-01T04:03:25;31.00;;;5.47;;
46815;SDS011;32787;53.316;8.670;2023-02-01T04:05:52;28.50;;;4.72;;
46815;SDS011;32787;53.316;8.670;2023-02-01T04:08:19;44.13;;;8.57;;
46815;SDS011;32787;53.316;8.670;2023-02-01T04:10:45;28.98;;;4.28;;
46815;SDS011;32787;53.316;8.670;2023-02-01T04:13:11;18.00;;;4.82;;
46815;SDS011;32787;53.316;8.670;2023-02-01T04:15:37;19.00;;;3.58;;
46815;SDS011;32787;53.316;8.670;2023-02-01T04:18:03;12.57;;;2.58;;
46815;SDS011;32787;53.316;8.670;2023-02-01T04:20:29;18.77;;;2.60;;
46815;SDS011;32787;53.316;8.670;2023-02-01T04:22:54;22.10;;;3.08;;
46815;SDS011;32787;53.316;8.670;2023-02-01T04:25:20;11.95;;;2.78;;
46815;SDS011;32787;53.316;8.670;2023-02-01T04:27:46;20.40;;;3.00;;
46815;SDS011;32787;53.316;8.670;2023-02-01T04:30:11;12.98;;;2.53;;
46815;SDS011;32787;53.316;8.670;2023-02-01T04:32:38;11.90;;;2.58;;
46815;SDS011;32787;53.316;8.670;2023-02-01T04:35:04;14.02;;;3.10;;
46815;SDS011;32787;53.316;8.670;2023-02-01T04:37:30;13.45;;;3.13;;
46815;SDS011;32787;53.316;8.670;2023-02-01T04:39:56;18.08;;;3.50;;
46815;SDS011;32787;53.316;8.670;2023-02-01T04:42:21;27.38;;;4.13;;
46815;SDS011;32787;53.316;8.670;2023-02-01T04:44:47;31.77;;;4.43;;
46815;SDS011;32787;53.316;8.670;2023-02-01T04:47:12;23.40;;;6.03;;
46815;SDS011;32787;53.316;8.670;2023-02-01T04:49:39;23.90;;;5.05;;
46815;SDS011;32787;53.316;8.670;2023-02-01T04:52:05;24.38;;;5.20;;
46815;SDS011;32787;53.316;8.670;2023-02-01T04:54:30;29.05;;;4.95;;
46815;SDS011;32787;53.316;8.670;2023-02-01T04:56:56;38.70;;;6.00;;
46815;SDS011;32787;53.316;8.670;2023-02-01T04:59:21;30.00;;;4.55;;
46815;SDS011;32787;53.316;8.670;2023-02-01T05:01:47;21.33;;;5.07;;
46815;SDS011;32787;53.316;8.670;2023-02-01T05:04:12;31.35;;;5.10;;
46815;SDS011;32787;53.316;8.670;2023-02-01T05:06:38;27.60;;;4.50;;
46815;SDS011;32787;53.316;8.670;2023-02-01T05:09:04;27.67;;;4.20;;
46815;SDS011;32787;53.316;8.670;2023-02-01T05:11:29;29.27;;;5.05;;
46815;SDS011;32787;53.316;8.670;2023-02-01T05:14:13;18.85;;;3.92;;
46815;SDS011;32787;53.316;8.670;2023-02-01T05:16:39;19.80;;;4.03;;
46815;SDS011;32787;53.316;8.670;2023-02-01T05:19:04;19.08;;;3.72;;
46815;SDS011;32787;53.316;8.670;2023-02-01T05:21:30;26.20;;;4.95;;
46815;SDS011;32787;53.316;8.670;2023-02-01T05:23:56;21.08;;;4.07;;
46815;SDS011;32787;53.316;8.670;2023-02-01T05:26:44;19.67;;;3.70;;
46815;SDS011;32787;53.316;8.670;2023-02-01T05:29:10;25.30;;;4.22;;
46815;SDS011;32787;53.316;8.670;2023-02-01T05:31:36;23.35;;;4.30;;
46815;SDS011;32787;53.316;8.670;2023-02-01T05:34:03;19.80;;;3.53;;
46815;SDS011;32787;53.316;8.670;2023-02-01T05:36:30;17.95;;;2.72;;
46815;SDS011;32787;53.316;8.670;2023-02-01T05:38:56;37.53;;;4.15;;
46815;SDS011;32787;53.316;8.670;2023-02-01T05:41:22;26.73;;;5.00;;
46815;SDS011;32787;53.316;8.670;2023-02-01T05:43:48;18.92;;;3.88;;
46815;SDS011;32787;53.316;8.670;2023-02-01T05:46:13;25.65;;;3.53;;
46815;SDS011;32787;53.316;8.670;2023-02-01T05:48:40;21.13;;;5.43;;
46815;SDS011;32787;53.316;8.670;2023-02-01T05:51:06;22.25;;;4.38;;
46815;SDS011;32787;53.316;8.670;2023-02-01T05:53:31;24.63;;;4.93;;
46815;SDS011;32787;53.316;8.670;2023-02-01T05:55:57;33.72;;;5.15;;
46815;SDS011;32787;53.316;8.670;2023-02-01T05:58:23;34.13;;;4.90;;
46815;SDS011;32787;53.316;8.670;2023-02-01T06:00:48;24.58;;;4.40;;
46815;SDS011;32787;53.316;8.670;2023-02-01T06:03:14;28.23;;;4.32;;
46815;SDS011;32787;53.316;8.670;2023-02-01T06:05:40;26.05;;;4.38;;
46815;SDS011;32787;53.316;8.670;2023-02-01T06:08:05;24.55;;;3.72;;
46815;SDS011;32787;53.316;8.670;2023-02-01T06:10:32;22.67;;;5.32;;
46815;SDS011;32787;53.316;8.670;2023-02-01T06:12:58;30.20;;;4.95;;
46815;SDS011;32787;53.316;8.670;2023-02-01T06:15:24;24.08;;;4.72;;
46815;SDS011;32787;53.316;8.670;2023-02-01T06:17:49;23.13;;;4.13;;
46815;SDS011;32787;53.316;8.670;2023-02-01T06:20:15;25.67;;;4.43;;
46815;SDS011;32787;53.316;8.670;2023-02-01T06:22:41;29.90;;;5.05;;
46815;SDS011;32787;53.316;8.670;2023-02-01T06:25:08;28.15;;;4.47;;
46815;SDS011;32787;53.316;8.670;2023-02-01T06:27:34;24.80;;;4.57;;
46815;SDS011;32787;53.316;8.670;2023-02-01T06:30:01;29.27;;;5.35;;
46815;SDS011;32787;53.316;8.670;2023-02-01T06:32:28;31.98;;;4.75;;
46815;SDS011;32787;53.316;8.670;2023-02-01T06:34:54;28.60;;;5.05;;
46815;SDS011;32787;53.316;8.670;2023-02-01T06:37:20;36.00;;;4.72;;
46815;SDS011;32787;53.316;8.670;2023-02-01T06:39:46;34.00;;;4.68;;
46815;SDS011;32787;53.316;8.670;2023-02-01T06:42:12;30.67;;;5.28;;
46815;SDS011;32787;53.316;8.670;2023-02-01T06:44:38;35.15;;;4.60;;
46815;SDS011;32787;53.316;8.670;2023-02-01T06:47:04;29.48;;;4.18;;
46815;SDS011;32787;53.316;8.670;2023-02-01T06:49:29;27.30;;;3.78;;
46815;SDS011;32787;53.316;8.670;2023-02-01T06:51:55;30.65;;;4.95;;
46815;SDS011;32787;53.316;8.670;2023-02-01T06:54:21;36.45;;;5.43;;
46815;SDS011;32787;53.316;8.670;2023-02-01T06:56:47;34.28;;;4.85;;
46815;SDS011;32787;53.316;8.670;2023-02-01T06:59:12;31.95;;;4.97;;
46815;SDS011;32787;53.316;8.670;2023-02-01T07:01:38;27.08;;;4.82;;
46815;SDS011;32787;53.316;8.670;2023-02-01T07:04:03;24.05;;;4.85;;
46815;SDS011;32787;53.316;8.670;2023-02-01T07:06:29;29.52;;;5.78;;
46815;SDS011;32787;53.316;8.670;2023-02-01T07:08:55;31.95;;;3.85;;
46815;SDS011;32787;53.316;8.670;2023-02-01T07:11:21;25.50;;;5.18;;
46815;SDS011;32787;53.316;8.670;2023-02-01T07:13:47;34.88;;;5.25;;
46815;SDS011;32787;53.316;8.670;2023-02-01T07:16:15;34.58;;;5.30;;
46815;SDS011;32787;53.316;8.670;2023-02-01T07:18:42;31.52;;;3.83;;
46815;SDS011;32787;53.316;8.670;2023-02-01T07:21:08;29.80;;;5.07;;
46815;SDS011;32787;53.316;8.670;2023-02-01T07:23:34;24.30;;;3.88;;
46815;SDS011;32787;53.316;8.670;2023-02-01T07:26:01;37.90;;;4.72;;
46815;SDS011;32787;53.316;8.670;2023-02-01T07:28:32;25.50;;;5.22;;
46815;SDS011;32787;53.316;8.670;2023-02-01T07:33:32;28.95;;;4.10;;
46815;SDS011;32787;53.316;8.670;2023-02-01T07:35:57;32.60;;;4.88;;
46815;SDS011;32787;53.316;8.670;2023-02-01T07:38:27;38.22;;;4.60;;
46815;SDS011;32787;53.316;8.670;2023-02-01T07:40:56;37.97;;;4.65;;
46815;SDS011;32787;53.316;8.670;2023-02-01T07:43:26;38.92;;;5.68;;
46815;SDS011;32787;53.316;8.670;2023-02-01T07:45:53;39.65;;;5.13;;
46815;SDS011;32787;53.316;8.670;2023-02-01T07:48:19;34.10;;;5.43;;
46815;SDS011;32787;53.316;8.670;2023-02-01T07:50:46;39.38;;;6.25;;
46815;SDS011;32787;53.316;8.670;2023-02-01T07:53:11;32.40;;;5.63;;
46815;SDS011;32787;53.316;8.670;2023-02-01T07:55:38;34.88;;;5.13;;
46815;SDS011;32787;53.316;8.670;2023-02-01T07:58:04;31.95;;;4.07;;
46815;SDS011;32787;53.316;8.670;2023-02-01T08:00:30;27.15;;;4.63;;
46815;SDS011;32787;53.316;8.670;2023-02-01T08:03:14;32.85;;;5.00;;
46815;SDS011;32787;53.316;8.670;2023-02-01T08:05:40;37.38;;;4.57;;
46815;SDS011;32787;53.316;8.670;2023-02-01T08:08:05;26.42;;;5.35;;
46815;SDS011;32787;53.316;8.670;2023-02-01T08:10:31;27.58;;;4.47;;
46815;SDS011;32787;53.316;8.670;2023-02-01T08:12:59;23.77;;;4.22;;
46815;SDS011;32787;53.316;8.670;2023-02-01T08:15:25;28.80;;;4.90;;
46815;SDS011;32787;53.316;8.670;2023-02-01T08:17:52;28.67;;;4.38;;
46815;SDS011;32787;53.316;8.670;2023-02-01T08:20:19;28.75;;;4.90;;
46815;SDS011;32787;53.316;8.670;2023-02-01T08:22:47;31.60;;;4.47;;
46815;SDS011;32787;53.316;8.670;2023-02-01T08:25:14;22.52;;;4.45;;
46815;SDS011;32787;53.316;8.670;2023-02-01T08:27:39;22.38;;;4.70;;
46815;SDS011;32787;53.316;8.670;2023-02-01T08:30:05;26.98;;;4.30;;
46815;SDS011;32787;53.316;8.670;2023-02-01T08:32:32;32.88;;;4.85;;
46815;SDS011;32787;53.316;8.670;2023-02-01T08:34:59;32.60;;;4.57;;
46815;SDS011;32787;53.316;8.670;2023-02-01T08:37:24;26.40;;;4.25;;
46815;SDS011;32787;53.316;8.670;2023-02-01T08:39:50;33.20;;;5.57;;
46815;SDS011;32787;53.316;8.670;2023-02-01T08:42:16;29.73;;;4.10;;
46815;SDS011;32787;53.316;8.670;2023-02-01T08:45:01;21.23;;;3.83;;
46815;SDS011;32787;53.316;8.670;2023-02-01T08:47:27;23.73;;;4.40;;
46815;SDS011;32787;53.316;8.670;2023-02-01T08:49:53;24.38;;;3.72;;
46815;SDS011;32787;53.316;8.670;2023-02-01T08:52:19;31.48;;;4.70;;
46815;SDS011;32787;53.316;8.670;2023-02-01T08:54:45;22.40;;;3.95;;
46815;SDS011;32787;53.316;8.670;2023-02-01T08:57:10;26.70;;;3.65;;
46815;SDS011;32787;53.316;8.670;2023-02-01T08:59:36;19.98;;;3.35;;
46815;SDS011;32787;53.316;8.670;2023-02-01T09:02:02;27.70;;;3.78;;
46815;SDS011;32787;53.316;8.670;2023-02-01T09:04:27;25.40;;;3.38;;
46815;SDS011;32787;53.316;8.670;2023-02-01T09:06:53;23.65;;;2.90;;
46815;SDS011;32787;53.316;8.670;2023-02-01T09:09:20;21.10;;;3.75;;
46815;SDS011;32787;53.316;8.670;2023-02-01T09:11:47;16.58;;;3.38;;
46815;SDS011;32787;53.316;8.670;2023-02-01T09:14:12;20.67;;;3.65;;
46815;SDS011;32787;53.316;8.670;2023-02-01T09:16:38;29.58;;;4.53;;
46815;SDS011;32787;53.316;8.670;2023-02-01T09:19:03;22.02;;;4.25;;
46815;SDS011;32787;53.316;8.670;2023-02-01T09:21:29;19.73;;;3.03;;
46815;SDS011;32787;53.316;8.670;2023-02-01T09:23:55;23.38;;;3.80;;
46815;SDS011;32787;53.316;8.670;2023-02-01T09:26:20;24.70;;;3.88;;
46815;SDS011;32787;53.316;8.670;2023-02-01T09:28:46;26.52;;;4.65;;
46815;SDS011;32787;53.316;8.670;2023-02-01T09:31:11;27.05;;;6.25;;
46815;SDS011;32787;53.316;8.670;2023-02-01T09:33:37;24.73;;;4.38;;
46815;SDS011;32787;53.316;8.670;2023-02-01T09:36:03;24.67;;;4.10;;
46815;SDS011;32787;53.316;8.670;2023-02-01T09:38:30;28.95;;;3.75;;
46815;SDS011;32787;53.316;8.670;2023-02-01T09:40:56;29.05;;;4.13;;
46815;SDS011;32787;53.316;8.670;2023-02-01T09:43:34;23.75;;;4.15;;
46815;SDS011;32787;53.316;8.670;2023-02-01T09:48:36;30.73;;;4.68;;
46815;SDS011;32787;53.316;8.670;2023-02-01T09:51:11;24.38;;;4.63;;
46815;SDS011;32787;53.316;8.670;2023-02-01T09:53:41;20.67;;;3.10;;
46815;SDS011;32787;53.316;8.670;2023-02-01T09:56:18;26.02;;;3.53;;
46815;SDS011;32787;53.316;8.670;2023-02-01T09:58:50;18.75;;;5.10;;
46815;SDS011;32787;53.316;8.670;2023-02-01T10:01:31;27.98;;;4.88;;
46815;SDS011;32787;53.316;8.670;2023-02-01T10:04:05;18.75;;;3.17;;
46815;SDS011;32787;53.316;8.670;2023-02-01T10:14:56;21.60;;;4.40;;
46815;SDS011;32787;53.316;8.670;2023-02-01T10:25:50;23.05;;;4.05;;
46815;SDS011;32787;53.316;8.670;2023-02-01T10:28:20;31.52;;;5.78;;
46815;SDS011;32787;53.316;8.670;2023-02-01T10:30:48;27.33;;;5.10;;
46815;SDS011;32787;53.316;8.670;2023-02-01T10:35:42;24.38;;;3.72;;
46815;SDS011;32787;53.316;8.670;2023-02-01T10:38:27;25.95;;;3.35;;
46815;SDS011;32787;53.316;8.670;2023-02-01T10:40:54;23.08;;;4.38;;
46815;SDS011;32787;53.316;8.670;2023-02-01T10:43:29;22.83;;;4.25;;
46815;SDS011;32787;53.316;8.670;2023-02-01T10:45:56;28.80;;;4.20;;
46815;SDS011;32787;53.316;8.670;2023-02-01T10:48:22;24.30;;;3.92;;
46815;SDS011;32787;53.316;8.670;2023-02-01T10:50:53;18.45;;;3.78;;
46815;SDS011;32787;53.316;8.670;2023-02-01T10:53:31;27.80;;;4.22;;
46815;SDS011;32787;53.316;8.670;2023-02-01T10:56:09;22.00;;;3.63;;
46815;SDS011;32787;53.316;8.670;2023-02-01T10:58:36;21.20;;;4.20;;
46815;SDS011;32787;53.316;8.670;2023-02-01T11:01:09;24.50;;;3.55;;
46815;SDS011;32787;53.316;8.670;2023-02-01T11:06:35;29.70;;;3.67;;
46815;SDS011;32787;53.316;8.670;2023-02-01T11:11:52;17.45;;;3.25;;
46815;SDS011;32787;53.316;8.670;2023-02-01T11:14:22;17.60;;;2.22;;
46815;SDS011;32787;53.316;8.670;2023-02-01T11:16:54;10.25;;;2.50;;
46815;SDS011;32787;53.316;8.670;2023-02-01T11:19:22;11.85;;;2.60;;
46815;SDS011;32787;53.316;8.670;2023-02-01T11:21:48;21.70;;;4.47;;
46815;SDS011;32787;53.316;8.670;2023-02-01T11:26:57;26.00;;;3.67;;
46815;SDS011;32787;53.316;8.670;2023-02-01T11:29:24;20.83;;;4.03;;
46815;SDS011;32787;53.316;8.670;2023-02-01T11:31:55;20.20;;;2.78;;
46815;SDS011;32787;53.316;8.670;2023-02-01T11:34:25;13.65;;;3.00;;
46815;SDS011;32787;53.316;8.670;2023-02-01T11:36:54;17.23;;;3.63;;
46815;SDS011;32787;53.316;8.670;2023-02-01T11:39:25;20.33;;;3.05;;
46815;SDS011;32787;53.316;8.670;2023-02-01T11:42:12;16.25;;;2.92;;
46815;SDS011;32787;53.316;8.670;2023-02-01T11:44:43;20.02;;;3.58;;
46815;SDS011;32787;53.316;8.670;2023-02-01T11:47:29;17.35;;;3.15;;
46815;SDS011;32787;53.316;8.670;2023-02-01T11:50:00;21.67;;;4.35;;
46815;SDS011;32787;53.316;8.670;2023-02-01T11:52:36;12.10;;;2.40;;
46815;SDS011;32787;53.316;8.670;2023-02-01T11:58:12;7.63;;;1.10;;
46815;SDS011;32787;53.316;8.670;2023-02-01T12:00:44;3.13;;;0.40;;
46815;SDS011;32787;53.316;8.670;2023-02-01T12:09:13;0.47;;;0.20;;
46815;SDS011;32787;53.316;8.670;2023-02-01T12:30:54;2.03;;;0.60;;
46815;SDS011;32787;53.316;8.670;2023-02-01T12:36:19;3.60;;;0.88;;
46815;SDS011;32787;53.316;8.670;2023-02-01T12:38:58;2.25;;;0.47;;
46815;SDS011;32787;53.316;8.670;2023-02-01T12:42:09;2.47;;;0.65;;
46815;SDS011;32787;53.316;8.670;2023-02-01T12:52:23;2.63;;;0.55;;
46815;SDS011;32787;53.316;8.670;2023-02-01T12:55:01;4.75;;;0.73;;
46815;SDS011;32787;53.316;8.670;2023-02-01T12:57:32;2.50;;;0.80;;
46815;SDS011;32787;53.316;8.670;2023-02-01T13:03:00;8.25;;;0.90;;
46815;SDS011;32787;53.316;8.670;2023-02-01T13:05:34;9.15;;;0.90;;
46815;SDS011;32787;53.316;8.670;2023-02-01T13:11:04;4.57;;;0.80;;
46815;SDS011;32787;53.316;8.670;2023-02-01T13:13:47;5.45;;;1.33;;
46815;SDS011;32787;53.316;8.670;2023-02-01T13:22:00;11.20;;;1.25;;
46815;SDS011;32787;53.316;8.670;2023-02-01T13:24:46;10.95;;;1.23;;
46815;SDS011;32787;53.316;8.670;2023-02-01T13:27:16;10.23;;;1.52;;
46815;SDS011;32787;53.316;8.670;2023-02-01T13:32:55;8.10;;;0.95;;
46815;SDS011;32787;53.316;8.670;2023-02-01T13:45:53;12.02;;;1.60;;
46815;SDS011;32787;53.316;8.670;2023-02-01T13:48:23;12.20;;;1.88;;
46815;SDS011;32787;53.316;8.670;2023-02-01T13:50:54;15.65;;;2.03;;
46815;SDS011;32787;53.316;8.670;2023-02-01T13:53:23;8.77;;;1.63;;
46815;SDS011;32787;53.316;8.670;2023-02-01T13:56:03;17.02;;;2.60;;
46815;SDS011;32787;53.316;8.670;2023-02-01T13:58:36;15.07;;;2.00;;
46815;SDS011;32787;53.316;8.670;2023-02-01T14:06:14;12.85;;;1.95;;
46815;SDS011;32787;53.316;8.670;2023-02-01T14:11:40;21.80;;;2.50;;
46815;SDS011;32787;53.316;8.670;2023-02-01T14:16:42;15.45;;;2.47;;
46815;SDS011;32787;53.316;8.670;2023-02-01T14:19:19;12.77;;;1.88;;
46815;SDS011;32787;53.316;8.670;2023-02-01T14:21:48;16.02;;;2.20;;
46815;SDS011;32787;53.316;8.670;2023-02-01T14:24:20;14.40;;;2.08;;
46815;SDS011;32787;53.316;8.670;2023-02-01T14:26:50;15.63;;;2.40;;
46815;SDS011;32787;53.316;8.670;2023-02-01T14:29:34;18.08;;;2.67;;
46815;SDS011;32787;53.316;8.670;2023-02-01T14:39:49;24.55;;;3.63;;
46815;SDS011;32787;53.316;8.670;2023-02-01T14:47:51;22.42;;;4.05;;
46815;SDS011;32787;53.316;8.670;2023-02-01T14:53:04;17.98;;;3.25;;
46815;SDS011;32787;53.316;8.670;2023-02-01T14:55:37;26.52;;;4.25;;
46815;SDS011;32787;53.316;8.670;2023-02-01T15:01:02;25.45;;;4.05;;
46815;SDS011;32787;53.316;8.670;2023-02-01T15:06:29;21.50;;;3.67;;
46815;SDS011;32787;53.316;8.670;2023-02-01T15:09:09;22.77;;;3.90;;
46815;SDS011;32787;53.316;8.670;2023-02-01T15:12:05;22.73;;;4.05;;
46815;SDS011;32787;53.316;8.670;2023-02-01T15:22:28;22.23;;;3.63;;
46815;SDS011;32787;53.316;8.670;2023-02-01T15:24:59;14.27;;;1.77;;
46815;SDS011;32787;53.316;8.670;2023-02-01T15:27:28;15.15;;;2.20;;
46815;SDS011;32787;53.316;8.670;2023-02-01T15:32:33;14.27;;;1.95;;
46815;SDS011;32787;53.316;8.670;2023-02-01T15:35:01;13.57;;;2.05;;
46815;SDS011;32787;53.316;8.670;2023-02-01T15:37:28;21.48;;;2.92;;
46815;SDS011;32787;53.316;8.670;2023-02-01T15:42:37;20.65;;;3.30;;
46815;SDS011;32787;53.316;8.670;2023-02-01T15:45:19;22.55;;;3.17;;
46815;SDS011;32787;53.316;8.670;2023-02-01T15:47:49;20.33;;;2.75;;
46815;SDS011;32787;53.316;8.670;2023-02-01T15:50:17;20.27;;;3.53;;
46815;SDS011;32787;53.316;8.670;2023-02-01T15:52:45;20.88;;;3.42;;
46815;SDS011;32787;53.316;8.670;2023-02-01T15:55:55;22.83;;;3.45;;
46815;SDS011;32787;53.316;8.670;2023-02-01T15:58:07;24.42;;;3.67;;
46815;SDS011;32787;53.316;8.670;2023-02-01T16:00:42;35.58;;;3.92;;
46815;SDS011;32787;53.316;8.670;2023-02-01T16:03:24;25.92;;;3.85;;
46815;SDS011;32787;53.316;8.670;2023-02-01T16:06:03;25.55;;;4.15;;
46815;SDS011;32787;53.316;8.670;2023-02-01T16:08:30;29.65;;;3.88;;
46815;SDS011;32787;53.316;8.670;2023-02-01T16:13:34;22.48;;;3.47;;
46815;SDS011;32787;53.316;8.670;2023-02-01T16:16:00;14.25;;;3.22;;
46815;SDS011;32787;53.316;8.670;2023-02-01T16:18:27;30.63;;;3.95;;
46815;SDS011;32787;53.316;8.670;2023-02-01T16:20:52;21.52;;;3.33;;
46815;SDS011;32787;53.316;8.670;2023-02-01T16:23:18;15.18;;;3.15;;
46815;SDS011;32787;53.316;8.670;2023-02-01T16:25:45;22.95;;;3.25;;
46815;SDS011;32787;53.316;8.670;2023-02-01T16:28:11;14.68;;;2.53;;
46815;SDS011;32787;53.316;8.670;2023-02-01T16:30:37;18.27;;;2.78;;
46815;SDS011;32787;53.316;8.670;2023-02-01T16:33:02;21.15;;;2.70;;
46815;SDS011;32787;53.316;8.670;2023-02-01T16:35:31;16.98;;;2.30;;
46815;SDS011;32787;53.316;8.670;2023-02-01T16:38:04;21.30;;;3.90;;
46815;SDS011;32787;53.316;8.670;2023-02-01T16:40:43;22.05;;;3.53;;
46815;SDS011;32787;53.316;8.670;2023-02-01T16:43:14;24.10;;;3.78;;
46815;SDS011;32787;53.316;8.670;2023-02-01T16:45:42;27.73;;;3.30;;
46815;SDS011;32787;53.316;8.670;2023-02-01T16:48:22;17.45;;;2.60;;
46815;SDS011;32787;53.316;8.670;2023-02-01T16:50:51;17.08;;;2.95;;
46815;SDS011;32787;53.316;8.670;2023-02-01T16:53:19;18.90;;;3.65;;
46815;SDS011;32787;53.316;8.670;2023-02-01T16:55:45;26.27;;;3.20;;
46815;SDS011;32787;53.316;8.670;2023-02-01T16:58:12;18.45;;;2.22;;
46815;SDS011;32787;53.316;8.670;2023-02-01T17:00:38;16.92;;;3.17;;
46815;SDS011;32787;53.316;8.670;2023-02-01T17:03:04;25.38;;;3.28;;
46815;SDS011;32787;53.316;8.670;2023-02-01T17:05:31;23.35;;;3.00;;
46815;SDS011;32787;53.316;8.670;2023-02-01T17:07:58;20.23;;;2.95;;
46815;SDS011;32787;53.316;8.670;2023-02-01T17:10:31;36.80;;;3.60;;
46815;SDS011;32787;53.316;8.670;2023-02-01T17:12:56;24.83;;;4.03;;
46815;SDS011;32787;53.316;8.670;2023-02-01T17:15:26;24.15;;;3.58;;
46815;SDS011;32787;53.316;8.670;2023-02-01T17:17:54;23.70;;;3.90;;
46815;SDS011;32787;53.316;8.670;2023-02-01T17:20:22;26.45;;;3.55;;
46815;SDS011;32787;53.316;8.670;2023-02-01T17:22:49;16.35;;;3.20;;
46815;SDS011;32787;53.316;8.670;2023-02-01T17:25:17;19.98;;;3.80;;
46815;SDS011;32787;53.316;8.670;2023-02-01T17:27:45;25.38;;;2.63;;
46815;SDS011;32787;53.316;8.670;2023-02-01T17:30:11;23.05;;;3.75;;
46815;SDS011;32787;53.316;8.670;2023-02-01T17:32:38;24.92;;;3.08;;
46815;SDS011;32787;53.316;8.670;2023-02-01T17:35:04;21.13;;;2.67;;
46815;SDS011;32787;53.316;8.670;2023-02-01T17:37:35;19.88;;;3.10;;
46815;SDS011;32787;53.316;8.670;2023-02-01T17:40:01;26.23;;;3.15;;
46815;SDS011;32787;53.316;8.670;2023-02-01T17:42:28;22.42;;;3.58;;
46815;SDS011;32787;53.316;8.670;2023-02-01T17:45:16;20.05;;;3.22;;
46815;SDS011;32787;53.316;8.670;2023-02-01T17:47:45;20.90;;;4.47;;